Seafrance Rodin — FOBQ — position and weather

sailwx.info

Track history (hours):
 
Tides and Currents Weather Stations Pressure Air Temp Water Temp Dewpoint Dewpoint Depression Visibility Wind Speed Wind Dir Waves Ship Positions

Seafrance Rodin

Operator: SeaFrance

Last reported at 2017-Apr-24 23:00 UTC. Time now 2017-Apr-24 23:07 UTC.
Position N 51°07' E 001°20'.

Length 185 m; draft 6 m.

MMSI: 227022800.

Date/timePositionNaut miles runAvg speedWind from/ knotsBaromVisibWave heightAir tempDewpointWater temp
2017-Apr-24 23:00N 51°07' E 001°20'3 5.3
2017-Apr-24 22:31N 51°07' E 001°24'816.5
2017-Apr-24 22:01N 51°03' E 001°36'816.0
2017-Apr-24 21:31N 50°58' E 001°46'3 6.6
2017-Apr-24 21:00N 50°58' E 001°51'0 0.0
2017-Apr-24 20:30N 50°58' E 001°51'3 6.9
2017-Apr-24 20:00N 50°58' E 001°46'816.0
2017-Apr-24 19:30N 50°59' E 001°33'816.4
2017-Apr-24 19:00N 51°05' E 001°24'4 7.0
2017-Apr-24 18:30N 51°07' E 001°20'0 0.0
2017-Apr-24 18:00N 51°07' E 001°20'5 9.3
2017-Apr-24 17:31N 51°06' E 001°27'918.5
2017-Apr-24 17:01N 51°01' E 001°39'816.0
2017-Apr-24 16:30N 50°58' E 001°51'0 0.3
2017-Apr-24 16:00N 50°58' E 001°51'1 1.6
2017-Apr-24 15:30N 50°58' E 001°50'815.7
2017-Apr-24 15:00N 50°60' E 001°38'918.1
2017-Apr-24 14:30N 51°05' E 001°26'4 4.3
2017-Apr-24 13:28N 51°07' E 001°20'510.0
2017-Apr-24 13:00N 51°07' E 001°27'918.1
2017-Apr-24 12:30N 51°01' E 001°39'816.0
2017-Apr-24 12:00N 50°58' E 001°51'0 0.6
2017-Apr-24 11:30N 50°58' E 001°51'0 0.7
2017-Apr-24 11:00N 50°58' E 001°51'816.4
2017-Apr-24 10:31N 50°59' E 001°38'917.7
2017-Apr-24 10:01N 51°04' E 001°26'5 8.1
2017-Apr-24 09:23N 51°07' E 001°20'0 0.0
2017-Apr-24 09:00N 51°07' E 001°20'3 6.1
2017-Apr-24 08:30N 51°07' E 001°25'918.0
2017-Apr-24 08:01N 51°03' E 001°38'816.9
2017-Apr-24 07:30N 50°58' E 001°49'2 3.1
2017-Apr-24 07:00N 50°58' E 001°51'0 0.0
2017-Apr-24 06:30N 50°58' E 001°51'3 5.8
2017-Apr-24 06:00N 50°58' E 001°47'715.0
2017-Apr-24 05:31N 51°02' E 001°36'816.7
2017-Apr-24 05:00N 51°06' E 001°25'3 6.6
2017-Apr-24 04:30N 51°07' E 001°20'0 0.0
2017-Apr-24 04:00N 51°07' E 001°20'3 6.0
2017-Apr-24 03:31N 51°06' E 001°25'816.7
2017-Apr-24 03:00N 51°02' E 001°36'816.7
2017-Apr-24 02:31N 50°58' E 001°48'2 4.3
2017-Apr-24 02:00N 50°58' E 001°51'0 0.0
2017-Apr-24 01:30N 50°58' E 001°51'2 4.6
2017-Apr-24 01:01N 50°58' E 001°47'816.5
2017-Apr-24 00:30N 50°59' E 001°34'815.9
2017-Apr-24 00:01N 51°05' E 001°25'4 8.0
2017-Apr-23 23:29N 51°07' E 001°20'0 0.0
2017-Apr-23 23:00N 51°07' E 001°20'2 3.7
2017-Apr-23 22:30N 51°07' E 001°23'816.8
2017-Apr-23 22:00N 51°03' E 001°35'816.7
2017-Apr-23 21:30N 50°58' E 001°46'4 7.2
2017-Apr-23 21:00N 50°58' E 001°51'0 0.0
2017-Apr-23 20:30N 50°58' E 001°51'5 9.3
2017-Apr-23 20:00N 50°58' E 001°44'816.2
2017-Apr-23 19:31N 51°01' E 001°32'815.9
2017-Apr-23 19:01N 51°06' E 001°22'2 3.6
2017-Apr-23 18:30N 51°07' E 001°20'0 0.0
2017-Apr-23 18:00N 51°07' E 001°20'5 9.9
2017-Apr-23 17:30N 51°06' E 001°28'918.4
2017-Apr-23 17:00N 51°01' E 001°40'815.2
2017-Apr-23 16:31N 50°58' E 001°51'0 0.3
2017-Apr-23 16:00N 50°58' E 001°51'0 0.5
2017-Apr-23 15:31N 50°58' E 001°51'714.8
2017-Apr-23 15:01N 50°59' E 001°39'1514.7
2017-Apr-23 14:00N 51°07' E 001°20'0 0.0
2017-Apr-23 13:30N 51°07' E 001°20'5 9.2
2017-Apr-23 13:01N 51°06' E 001°27'918.8
2017-Apr-23 12:30N 51°01' E 001°39'815.6
2017-Apr-23 12:01N 50°58' E 001°51'0 0.3
2017-Apr-23 11:30N 50°58' E 001°51'1 1.5
2017-Apr-23 11:00N 50°58' E 001°50'917.5
2017-Apr-23 10:30N 51°00' E 001°37'918.1
2017-Apr-23 10:00N 51°05' E 001°25'4 7.2
2017-Apr-23 09:30N 51°07' E 001°20'3 5.6
2017-Apr-23 09:01N 51°07' E 001°25'1020.8
2017-Apr-23 08:31N 51°01' E 001°38'816.7
2017-Apr-23 08:01N 50°58' E 001°51'0 0.6
2017-Apr-23 07:31N 50°58' E 001°51'0 0.0
2017-Apr-23 07:00N 50°58' E 001°51'0 0.0
2017-Apr-23 06:31N 50°58' E 001°51'0 0.0
2017-Apr-23 06:00N 50°58' E 001°51'0 0.0
2017-Apr-23 05:30N 50°58' E 001°51'0 0.0
2017-Apr-23 05:01N 50°58' E 001°51'0 0.0
2017-Apr-23 04:31N 50°58' E 001°51'0 0.0
2017-Apr-23 04:00N 50°58' E 001°51'0 0.0
2017-Apr-23 03:31N 50°58' E 001°51'0 0.0
2017-Apr-23 03:01N 50°58' E 001°51'0 0.0
2017-Apr-23 02:31N 50°58' E 001°51'0 0.0
2017-Apr-23 02:00N 50°58' E 001°51'0 0.0
2017-Apr-23 01:31N 50°58' E 001°51'2 3.0
2017-Apr-23 01:00N 50°58' E 001°49'815.9
2017-Apr-23 00:30N 50°60' E 001°36'917.3
2017-Apr-23 00:00N 51°05' E 001°26'4 8.3
2017-Apr-22 23:30N 51°07' E 001°20'0 0.0
2017-Apr-22 23:00N 51°07' E 001°20'3 5.6
2017-Apr-22 22:30N 51°07' E 001°25'918.6
2017-Apr-22 22:00N 51°02' E 001°37'816.6
2017-Apr-22 21:30N 50°58' E 001°49'2 3.1
2017-Apr-22 21:00N 50°58' E 001°51'0 0.0
2017-Apr-22 20:30N 50°58' E 001°51'4 8.1
2017-Apr-22 20:00N 50°58' E 001°45'917.5
2017-Apr-22 19:30N 51°01' E 001°32'816.5
2017-Apr-22 19:00N 51°07' E 001°22'1 2.6
2017-Apr-22 18:29N 51°07' E 001°20'0 0.0
2017-Apr-22 17:59N 51°07' E 001°20'714.8
2017-Apr-22 17:30N 51°05' E 001°31'1020.8
2017-Apr-22 17:00N 50°58' E 001°44'5 9.3
2017-Apr-22 16:30N 50°58' E 001°51'0 0.0
2017-Apr-22 16:00N 50°58' E 001°51'3 5.5
2017-Apr-22 15:30N 50°58' E 001°47'917.8
2017-Apr-22 15:00N 51°00' E 001°33'1019.5
2017-Apr-22 14:30N 51°07' E 001°22'1 1.2
2017-Apr-22 13:30N 51°07' E 001°20'714.5
2017-Apr-22 13:00N 51°04' E 001°31'1121.0
2017-Apr-22 12:30N 50°58' E 001°44'4 8.9
2017-Apr-22 12:00N 50°58' E 001°51'0 0.0
2017-Apr-22 11:31N 50°58' E 001°51'1 2.5
2017-Apr-22 11:00N 50°58' E 001°49'816.1
2017-Apr-22 10:30N 50°59' E 001°37'918.0
2017-Apr-22 10:00N 51°05' E 001°26'4 8.3
2017-Apr-22 09:30N 51°07' E 001°20'0 0.0
2017-Apr-22 08:59N 51°07' E 001°20'3 5.2
2017-Apr-22 08:30N 51°07' E 001°24'918.4
2017-Apr-22 08:00N 51°02' E 001°36'917.1
2017-Apr-22 07:30N 50°58' E 001°49'2 3.4
2017-Apr-22 07:00N 50°58' E 001°51'0 0.0
2017-Apr-22 06:31N 50°58' E 001°51'3 6.0
2017-Apr-22 06:00N 50°58' E 001°46'816.6
2017-Apr-22 05:30N 51°01' E 001°34'816.9
2017-Apr-22 05:00N 51°06' E 001°24'3 5.0
2017-Apr-22 04:30N 51°07' E 001°20'0 0.0
2017-Apr-22 04:00N 51°07' E 001°20'2 3.9
2017-Apr-22 03:30N 51°07' E 001°23'816.8
2017-Apr-22 03:01N 51°03' E 001°35'816.9
2017-Apr-22 02:31N 50°58' E 001°46'3 7.0
2017-Apr-22 02:01N 50°58' E 001°51'0 0.0
2017-Apr-22 01:31N 50°58' E 001°51'1 2.0
2017-Apr-22 01:00N 50°58' E 001°50'815.4
2017-Apr-22 00:31N 50°60' E 001°38'917.2
2017-Apr-22 00:00N 51°04' E 001°26'5 9.9
2017-Apr-21 23:30N 51°07' E 001°20'0 0.0
2017-Apr-21 23:00N 51°07' E 001°20'2 4.1
2017-Apr-21 22:31N 51°07' E 001°23'815.9
2017-Apr-21 22:01N 51°03' E 001°34'816.4
2017-Apr-21 21:31N 50°58' E 001°45'4 8.2
2017-Apr-21 21:00N 50°58' E 001°51'0 0.0
2017-Apr-21 20:30N 50°58' E 001°51'5 9.3
2017-Apr-21 20:00N 50°58' E 001°44'918.1
2017-Apr-21 19:30N 51°03' E 001°32'816.7
2017-Apr-21 19:00N 51°07' E 001°21'0 0.6
2017-Apr-21 18:30N 51°07' E 001°20'0 0.0
2017-Apr-21 17:59N 51°07' E 001°20'4 8.9
2017-Apr-21 17:30N 51°06' E 001°26'918.1
2017-Apr-21 17:00N 51°01' E 001°39'816.1
2017-Apr-21 16:31N 50°58' E 001°51'0 0.8
2017-Apr-21 16:01N 50°58' E 001°51'0 0.9
2017-Apr-21 15:30N 50°58' E 001°51'815.9
2017-Apr-21 15:00N 50°59' E 001°38'918.0
2017-Apr-21 14:30N 51°04' E 001°27'5 4.9
2017-Apr-21 13:28N 51°07' E 001°20'4 8.9
2017-Apr-21 13:00N 51°06' E 001°26'917.7
2017-Apr-21 12:30N 51°01' E 001°38'816.5
2017-Apr-21 12:01N 50°58' E 001°50'1 1.5
2017-Apr-21 11:31N 50°58' E 001°51'0 0.2
2017-Apr-21 11:01N 50°58' E 001°51'713.9
2017-Apr-21 10:30N 50°59' E 001°40'917.1
2017-Apr-21 10:00N 51°04' E 001°29'713.6
2017-Apr-21 09:30N 51°07' E 001°20'0 0.0
2017-Apr-21 09:00N 51°07' E 001°20'3 6.4
2017-Apr-21 08:30N 51°07' E 001°25'918.0
2017-Apr-21 08:00N 51°02' E 001°37'917.2
2017-Apr-21 07:30N 50°58' E 001°49'1 2.9
2017-Apr-21 07:00N 50°58' E 001°51'0 0.0
2017-Apr-21 06:30N 50°58' E 001°51'4 7.4
2017-Apr-21 06:00N 50°58' E 001°45'816.8
2017-Apr-21 05:30N 50°59' E 001°32'917.3
2017-Apr-21 05:00N 51°06' E 001°23'3 5.2
2017-Apr-21 04:30N 51°07' E 001°20'0 0.0
2017-Apr-21 04:00N 51°07' E 001°20'3 5.2
2017-Apr-21 03:30N 51°07' E 001°24'816.9
2017-Apr-21 03:00N 51°03' E 001°36'816.8
2017-Apr-21 02:30N 50°58' E 001°47'3 5.2
2017-Apr-21 02:00N 50°58' E 001°51'0 0.0
2017-Apr-21 01:30N 50°58' E 001°51'2 3.1
2017-Apr-21 01:00N 50°58' E 001°49'815.3
2017-Apr-21 00:30N 50°59' E 001°37'816.9
2017-Apr-21 00:00N 51°05' E 001°26'5 9.2
2017-Apr-20 23:30N 51°07' E 001°20'0 0.0
2017-Apr-20 23:00N 51°07' E 001°20'1 2.5
2017-Apr-20 22:30N 51°07' E 001°22'817.0
2017-Apr-20 22:00N 51°04' E 001°34'817.0
2017-Apr-20 21:30N 50°58' E 001°45'4 8.3
2017-Apr-20 21:01N 50°58' E 001°51'0 0.0
2017-Apr-20 20:31N 50°58' E 001°51'4 7.5
2017-Apr-20 20:01N 50°58' E 001°45'816.0
2017-Apr-20 19:30N 51°01' E 001°33'815.9
2017-Apr-20 19:01N 51°06' E 001°24'3 5.5
2017-Apr-20 18:30N 51°07' E 001°20'0 0.0
2017-Apr-20 18:00N 51°07' E 001°20'5 9.7
2017-Apr-20 17:31N 51°06' E 001°27'918.5
2017-Apr-20 17:01N 51°01' E 001°40'815.1
2017-Apr-20 16:30N 50°58' E 001°51'0 0.4
2017-Apr-20 16:00N 50°58' E 001°51'0 0.7
2017-Apr-20 15:30N 50°58' E 001°51'816.8
2017-Apr-20 15:00N 50°59' E 001°37'918.2
2017-Apr-20 14:30N 51°04' E 001°26'5 4.8
2017-Apr-20 13:30N 51°07' E 001°20'5 9.8
2017-Apr-20 13:01N 51°06' E 001°27'1122.2
2017-Apr-20 12:31N 50°59' E 001°42'612.2
2017-Apr-20 12:01N 50°58' E 001°51'0 0.0
2017-Apr-20 11:30N 50°58' E 001°51'0 0.3
2017-Apr-20 11:00N 50°58' E 001°51'815.7
2017-Apr-20 10:31N 50°59' E 001°39'1020.1
2017-Apr-20 10:00N 51°05' E 001°25'4 8.0
2017-Apr-20 09:30N 51°07' E 001°20'0 0.0
2017-Apr-20 09:00N 51°07' E 001°20'3 5.9
2017-Apr-20 08:31N 51°07' E 001°25'918.2
2017-Apr-20 08:00N 51°02' E 001°37'816.9
2017-Apr-20 07:30N 50°58' E 001°49'1 2.7
2017-Apr-20 07:00N 50°58' E 001°51'0 0.0
2017-Apr-20 06:30N 50°58' E 001°51'2 3.2
2017-Apr-20 06:00N 50°58' E 001°49'816.3
2017-Apr-20 05:30N 51°00' E 001°36'917.7
2017-Apr-20 05:00N 51°05' E 001°25'4 7.0
2017-Apr-20 04:30N 51°07' E 001°20'0 0.0
2017-Apr-20 04:00N 51°07' E 001°20'2 3.2
2017-Apr-20 03:30N 51°07' E 001°23'917.1
2017-Apr-20 03:00N 51°03' E 001°35'917.2
2017-Apr-20 02:30N 50°58' E 001°46'3 6.8
2017-Apr-20 02:01N 50°58' E 001°51'0 0.0
2017-Apr-20 01:31N 50°58' E 001°51'0 0.9
2017-Apr-20 01:00N 50°58' E 001°51'816.4
2017-Apr-20 00:31N 50°59' E 001°38'918.9
2017-Apr-20 00:00N 51°05' E 001°26'4 8.5
2017-Apr-19 23:31N 51°07' E 001°20'0 0.0
2017-Apr-19 23:00N 51°07' E 001°20'0 0.5
2017-Apr-19 22:31N 51°07' E 001°20'918.5
2017-Apr-19 22:00N 51°04' E 001°34'1019.2
2017-Apr-19 21:31N 50°58' E 001°46'3 6.0
2017-Apr-19 21:00N 50°58' E 001°51'0 0.0
2017-Apr-19 20:30N 50°58' E 001°51'3 6.6
2017-Apr-19 20:00N 50°58' E 001°46'917.3
2017-Apr-19 19:30N 51°01' E 001°33'917.8
2017-Apr-19 19:00N 51°07' E 001°22'1 2.9
2017-Apr-19 18:30N 51°07' E 001°20'0 0.0
2017-Apr-19 18:00N 51°07' E 001°20'713.4
2017-Apr-19 17:31N 51°05' E 001°30'1020.0
2017-Apr-19 17:01N 50°59' E 001°43'510.5
2017-Apr-19 16:30N 50°58' E 001°51'0 0.0
2017-Apr-19 16:00N 50°58' E 001°51'1 1.1
2017-Apr-19 15:31N 50°58' E 001°50'816.8
2017-Apr-19 15:00N 50°60' E 001°37'917.5
2017-Apr-19 14:30N 51°05' E 001°26'4 4.4
2017-Apr-19 13:30N 51°07' E 001°20'3 6.3
2017-Apr-19 13:00N 51°06' E 001°25'1121.5
2017-Apr-19 12:30N 51°01' E 001°39'815.8
2017-Apr-19 12:01N 50°58' E 001°51'0 0.2
2017-Apr-19 11:30N 50°58' E 001°51'0 0.5
2017-Apr-19 11:01N 50°58' E 001°51'815.7
2017-Apr-19 10:30N 50°59' E 001°38'919.0
2017-Apr-19 10:00N 51°05' E 001°26'5 9.7
2017-Apr-19 09:30N 51°07' E 001°20'0 0.0
2017-Apr-19 09:00N 51°07' E 001°20'3 5.5
2017-Apr-19 08:30N 51°07' E 001°24'917.2
2017-Apr-19 08:00N 51°02' E 001°36'816.6
2017-Apr-19 07:30N 50°58' E 001°48'2 4.6
2017-Apr-19 07:00N 50°58' E 001°51'0 0.0
2017-Apr-19 06:30N 50°58' E 001°51'2 4.2
2017-Apr-19 06:01N 50°58' E 001°48'816.9
2017-Apr-19 05:31N 51°00' E 001°35'816.6
2017-Apr-19 05:01N 51°05' E 001°25'7 3.4
2017-Apr-19 03:01N 51°03' E 001°35'816.9
2017-Apr-19 02:31N 50°58' E 001°46'3 6.9
2017-Apr-19 02:00N 50°58' E 001°51'0 0.0
2017-Apr-19 01:31N 50°58' E 001°51'1 1.8
2017-Apr-19 01:00N 50°58' E 001°50'816.7
2017-Apr-19 00:30N 50°59' E 001°37'917.7
2017-Apr-19 00:00N 51°05' E 001°26'4 8.8
2017-Apr-18 23:30N 51°07' E 001°20'0 0.0
2017-Apr-18 23:00N 51°07' E 001°20'0 0.6
2017-Apr-18 22:30N 51°07' E 001°21'1020.0
2017-Apr-18 22:00N 51°03' E 001°35'1019.9
2017-Apr-18 21:30N 50°58' E 001°49'2 3.0
2017-Apr-18 21:00N 50°58' E 001°51'0 0.0
2017-Apr-18 20:30N 50°58' E 001°51'3 5.7
2017-Apr-18 20:00N 50°58' E 001°47'816.6
2017-Apr-18 19:30N 51°01' E 001°34'918.1
2017-Apr-18 19:00N 51°06' E 001°23'2 3.9
2017-Apr-18 18:29N 51°07' E 001°20'0 0.0
2017-Apr-18 18:00N 51°07' E 001°20'4 8.6
2017-Apr-18 17:30N 51°07' E 001°27'918.3
2017-Apr-18 17:00N 51°01' E 001°39'816.2
2017-Apr-18 16:30N 50°58' E 001°51'0 0.8
2017-Apr-18 16:00N 50°58' E 001°51'1 1.2
2017-Apr-18 15:31N 50°58' E 001°50'917.4
2017-Apr-18 15:00N 50°59' E 001°36'917.5
2017-Apr-18 14:30N 51°05' E 001°26'5 4.7
2017-Apr-18 13:31N 51°07' E 001°20'3 5.8
2017-Apr-18 13:00N 51°07' E 001°25'1121.4
2017-Apr-18 12:30N 51°01' E 001°39'816.2
2017-Apr-18 12:01N 50°58' E 001°51'0 0.3
2017-Apr-18 11:30N 50°58' E 001°51'0 0.5
2017-Apr-18 11:00N 50°58' E 001°51'815.5
2017-Apr-18 10:31N 50°59' E 001°39'917.7
2017-Apr-18 10:00N 51°03' E 001°26'611.5
2017-Apr-18 09:30N 51°07' E 001°20'0 0.0
2017-Apr-18 09:00N 51°07' E 001°20'3 5.2
2017-Apr-18 08:31N 51°07' E 001°24'816.5
2017-Apr-18 08:00N 51°02' E 001°35'817.0
2017-Apr-18 07:30N 50°58' E 001°47'3 5.5
2017-Apr-18 07:00N 50°58' E 001°51'0 0.0
2017-Apr-18 06:30N 50°58' E 001°51'1 2.8
2017-Apr-18 06:00N 50°58' E 001°49'917.1
2017-Apr-18 05:30N 51°00' E 001°36'917.2
2017-Apr-18 05:01N 51°05' E 001°25'4 7.5
2017-Apr-18 04:30N 51°07' E 001°20'0 0.0
2017-Apr-18 04:00N 51°07' E 001°20'3 5.4
2017-Apr-18 03:30N 51°07' E 001°24'917.6
2017-Apr-18 03:01N 51°02' E 001°36'816.0
2017-Apr-18 02:31N 50°58' E 001°47'3 5.3
2017-Apr-18 02:00N 50°58' E 001°51'0 0.0
2017-Apr-18 01:30N 50°58' E 001°51'0 0.8
2017-Apr-18 01:00N 50°58' E 001°51'816.8
2017-Apr-18 00:30N 51°00' E 001°38'918.9
2017-Apr-18 00:00N 51°05' E 001°25'4 7.4
2017-Apr-17 23:30N 51°07' E 001°20'0 0.0
2017-Apr-17 23:00N 51°07' E 001°20'0 0.5
2017-Apr-17 22:30N 51°07' E 001°21'917.8
2017-Apr-17 22:01N 51°03' E 001°33'1019.0
2017-Apr-17 21:30N 50°58' E 001°46'3 7.0
2017-Apr-17 21:01N 50°58' E 001°51'0 0.0
2017-Apr-17 20:31N 50°58' E 001°51'4 7.6
2017-Apr-17 20:00N 50°58' E 001°45'917.2
2017-Apr-17 19:30N 51°01' E 001°33'918.3
2017-Apr-17 19:00N 51°07' E 001°21'1 1.3
2017-Apr-17 18:30N 51°07' E 001°20'0 0.0
2017-Apr-17 17:59N 51°07' E 001°20'612.6
2017-Apr-17 17:31N 51°06' E 001°29'918.2
2017-Apr-17 17:01N 51°00' E 001°41'713.6
2017-Apr-17 16:30N 50°58' E 001°51'0 0.0
2017-Apr-17 16:00N 50°58' E 001°51'1 1.1
2017-Apr-17 15:30N 50°58' E 001°50'917.1
2017-Apr-17 15:01N 51°00' E 001°37'917.4
2017-Apr-17 14:30N 51°05' E 001°26'4 4.2
2017-Apr-17 13:29N 51°07' E 001°20'5 9.9
2017-Apr-17 13:01N 51°06' E 001°27'1019.5
2017-Apr-17 12:30N 51°00' E 001°40'714.8
2017-Apr-17 12:01N 50°58' E 001°51'0 0.2
2017-Apr-17 11:30N 50°58' E 001°51'0 0.9
2017-Apr-17 11:00N 50°58' E 001°51'815.7
2017-Apr-17 10:30N 50°59' E 001°38'918.1
2017-Apr-17 10:00N 51°04' E 001°27'510.6
2017-Apr-17 09:30N 51°07' E 001°20'0 0.0
2017-Apr-17 09:00N 51°07' E 001°20'1 3.0
2017-Apr-17 08:30N 51°07' E 001°22'917.5
2017-Apr-17 08:01N 51°02' E 001°34'918.8
2017-Apr-17 07:31N 50°58' E 001°47'2 4.8
2017-Apr-17 07:00N 50°58' E 001°51'0 0.0
2017-Apr-17 06:30N 50°58' E 001°51'2 4.3
2017-Apr-17 06:00N 50°58' E 001°48'816.1
2017-Apr-17 05:30N 51°00' E 001°36'816.1
2017-Apr-17 05:00N 51°05' E 001°25'4 7.5
2017-Apr-17 04:29N 51°07' E 001°20'0 0.0
2017-Apr-17 04:00N 51°07' E 001°20'2 4.6
2017-Apr-17 03:30N 51°07' E 001°24'816.0
2017-Apr-17 03:01N 51°04' E 001°35'816.0
2017-Apr-17 02:30N 50°58' E 001°45'4 8.1
2017-Apr-17 02:00N 50°58' E 001°51'0 0.0
2017-Apr-17 01:30N 50°58' E 001°51'1 1.2
2017-Apr-17 01:01N 50°58' E 001°50'917.7
2017-Apr-17 00:30N 50°59' E 001°36'917.4
2017-Apr-17 00:01N 51°05' E 001°26'4 8.8
2017-Apr-16 23:30N 51°07' E 001°20'0 0.0
2017-Apr-16 23:00N 51°07' E 001°20'1 1.2
2017-Apr-16 22:30N 51°07' E 001°21'918.9
2017-Apr-16 22:00N 51°03' E 001°34'1019.0
2017-Apr-16 21:30N 50°58' E 001°48'2 4.7
2017-Apr-16 21:00N 50°58' E 001°51'0 0.0
2017-Apr-16 20:30N 50°58' E 001°51'4 7.5
2017-Apr-16 20:01N 50°58' E 001°45'815.8
2017-Apr-16 19:31N 51°01' E 001°34'816.8
2017-Apr-16 19:01N 51°06' E 001°23'2 4.6
2017-Apr-16 18:30N 51°07' E 001°20'0 0.0
2017-Apr-16 18:00N 51°07' E 001°20'611.3
2017-Apr-16 17:30N 51°06' E 001°29'917.1
2017-Apr-16 17:00N 51°01' E 001°39'815.0
2017-Apr-16 16:30N 50°58' E 001°51'0 0.7
2017-Apr-16 16:00N 50°58' E 001°51'0 0.8
2017-Apr-16 15:30N 50°58' E 001°51'816.6
2017-Apr-16 15:00N 50°59' E 001°38'816.9
2017-Apr-16 14:30N 51°04' E 001°26'5 5.4
2017-Apr-16 13:30N 51°07' E 001°20'5 9.2
2017-Apr-16 13:01N 51°06' E 001°27'1019.2
2017-Apr-16 12:31N 51°01' E 001°40'715.0
2017-Apr-16 12:00N 50°58' E 001°51'0 0.6
2017-Apr-16 11:30N 50°58' E 001°51'0 0.5
2017-Apr-16 11:01N 50°58' E 001°51'815.5
2017-Apr-16 10:31N 50°59' E 001°39'918.0
2017-Apr-16 10:00N 51°04' E 001°26'610.1
2017-Apr-16 09:28N 51°08' E 001°20'0 0.0
2017-Apr-16 08:55N 51°08' E 001°20'4 9.1
2017-Apr-16 08:30N 51°07' E 001°26'917.6
2017-Apr-16 08:00N 51°03' E 001°39'816.8
2017-Apr-16 07:30N 50°58' E 001°50'1 2.3
2017-Apr-16 07:00N 50°58' E 001°52'0 0.0
2017-Apr-16 06:31N 50°58' E 001°52'0 0.0
2017-Apr-16 06:00N 50°58' E 001°52'0 0.0
2017-Apr-16 05:30N 50°58' E 001°52'0 0.0
2017-Apr-16 05:00N 50°58' E 001°52'0 0.0
2017-Apr-16 04:30N 50°58' E 001°52'0 0.0
2017-Apr-16 04:00N 50°58' E 001°52'0 0.0
2017-Apr-16 03:30N 50°58' E 001°52'0 0.0
2017-Apr-16 03:00N 50°58' E 001°52'0 0.0
2017-Apr-16 02:30N 50°58' E 001°52'0 0.0
2017-Apr-16 02:01N 50°58' E 001°52'0 0.0
2017-Apr-16 01:30N 50°58' E 001°52'1 1.4
2017-Apr-16 01:01N 50°58' E 001°51'816.8
2017-Apr-16 00:31N 50°60' E 001°37'917.7
2017-Apr-16 00:01N 51°05' E 001°26'5 8.8
2017-Apr-15 23:30N 51°07' E 001°20'0 0.0
2017-Apr-15 22:59N 51°07' E 001°20'1 2.3
2017-Apr-15 22:30N 51°07' E 001°22'918.9
2017-Apr-15 22:01N 51°03' E 001°35'918.4
2017-Apr-15 21:31N 50°58' E 001°48'2 4.5
2017-Apr-15 21:00N 50°58' E 001°51'0 0.0
2017-Apr-15 20:30N 50°58' E 001°51'4 7.8
2017-Apr-15 20:00N 50°58' E 001°45'816.6
2017-Apr-15 19:31N 51°01' E 001°33'917.7
2017-Apr-15 19:00N 51°07' E 001°22'1 2.8
2017-Apr-15 18:30N 51°07' E 001°20'0 0.0
2017-Apr-15 18:00N 51°07' E 001°20'5 9.4
2017-Apr-15 17:31N 51°06' E 001°27'816.8
2017-Apr-15 17:01N 51°01' E 001°38'815.8
2017-Apr-15 16:30N 50°58' E 001°50'1 1.6
2017-Apr-15 16:00N 50°58' E 001°51'0 0.6
2017-Apr-15 15:31N 50°58' E 001°51'816.6
2017-Apr-15 15:00N 50°59' E 001°38'917.7
2017-Apr-15 14:30N 51°05' E 001°26'5 4.7
2017-Apr-15 13:29N 51°07' E 001°20'613.2
2017-Apr-15 13:00N 51°07' E 001°30'1019.3
2017-Apr-15 12:31N 51°00' E 001°41'713.0
2017-Apr-15 12:00N 50°58' E 001°51'0 0.0
2017-Apr-15 11:30N 50°58' E 001°51'0 0.5
2017-Apr-15 11:00N 50°58' E 001°51'816.3
2017-Apr-15 10:31N 50°59' E 001°38'918.5
2017-Apr-15 10:00N 51°04' E 001°26'5 9.9
2017-Apr-15 09:30N 51°07' E 001°20'0 0.0
2017-Apr-15 09:00N 51°07' E 001°20'3 5.9
2017-Apr-15 08:30N 51°07' E 001°25'816.3
2017-Apr-15 08:00N 51°03' E 001°36'816.8
2017-Apr-15 07:30N 50°58' E 001°47'3 5.4
2017-Apr-15 07:00N 50°58' E 001°51'0 0.0
2017-Apr-15 06:30N 50°58' E 001°51'2 4.0
2017-Apr-15 06:01N 50°58' E 001°48'815.3
2017-Apr-15 05:31N 51°01' E 001°37'917.3
2017-Apr-15 05:01N 51°06' E 001°25'4 7.4
2017-Apr-15 04:30N 51°07' E 001°20'0 0.0
2017-Apr-15 04:00N 51°07' E 001°20'2 4.8
2017-Apr-15 03:31N 51°07' E 001°24'917.1
2017-Apr-15 03:01N 51°03' E 001°36'816.5
2017-Apr-15 02:31N 50°58' E 001°46'3 5.8
2017-Apr-15 02:00N 50°58' E 001°51'0 0.0
2017-Apr-15 01:30N 50°58' E 001°51'0 0.2
2017-Apr-15 01:00N 50°58' E 001°51'815.5
2017-Apr-15 00:30N 50°60' E 001°39'1019.6
2017-Apr-15 00:00N 51°05' E 001°26'4 9.0
2017-Apr-14 23:30N 51°07' E 001°20'  
Track history (hours):
 
Tides and Currents Weather Stations Pressure Air Temp Water Temp Dewpoint Dewpoint Depression Visibility Wind Speed Wind Dir Waves Ship Positions

Seafrance Rodin

Operator: SeaFrance

Last reported at 2017-Apr-24 23:00 UTC. Time now 2017-Apr-24 23:07 UTC.
Position N 51°07' E 001°20'.

Length 185 m; draft 6 m.

MMSI: 227022800.

Date/timePositionNaut miles runAvg speedWind from/ knotsBaromVisibWave heightAir tempDewpointWater temp
2017-Apr-24 23:00N 51°07' E 001°20'3 5.3
2017-Apr-24 22:31N 51°07' E 001°24'816.5
2017-Apr-24 22:01N 51°03' E 001°36'816.0
2017-Apr-24 21:31N 50°58' E 001°46'3 6.6
2017-Apr-24 21:00N 50°58' E 001°51'0 0.0
2017-Apr-24 20:30N 50°58' E 001°51'3 6.9
2017-Apr-24 20:00N 50°58' E 001°46'816.0
2017-Apr-24 19:30N 50°59' E 001°33'816.4
2017-Apr-24 19:00N 51°05' E 001°24'4 7.0
2017-Apr-24 18:30N 51°07' E 001°20'0 0.0
2017-Apr-24 18:00N 51°07' E 001°20'5 9.3
2017-Apr-24 17:31N 51°06' E 001°27'918.5
2017-Apr-24 17:01N 51°01' E 001°39'816.0
2017-Apr-24 16:30N 50°58' E 001°51'0 0.3
2017-Apr-24 16:00N 50°58' E 001°51'1 1.6
2017-Apr-24 15:30N 50°58' E 001°50'815.7
2017-Apr-24 15:00N 50°60' E 001°38'918.1
2017-Apr-24 14:30N 51°05' E 001°26'4 4.3
2017-Apr-24 13:28N 51°07' E 001°20'510.0
2017-Apr-24 13:00N 51°07' E 001°27'918.1
2017-Apr-24 12:30N 51°01' E 001°39'816.0
2017-Apr-24 12:00N 50°58' E 001°51'0 0.6
2017-Apr-24 11:30N 50°58' E 001°51'0 0.7
2017-Apr-24 11:00N 50°58' E 001°51'816.4
2017-Apr-24 10:31N 50°59' E 001°38'917.7
2017-Apr-24 10:01N 51°04' E 001°26'5 8.1
2017-Apr-24 09:23N 51°07' E 001°20'0 0.0
2017-Apr-24 09:00N 51°07' E 001°20'3 6.1
2017-Apr-24 08:30N 51°07' E 001°25'918.0
2017-Apr-24 08:01N 51°03' E 001°38'816.9
2017-Apr-24 07:30N 50°58' E 001°49'2 3.1
2017-Apr-24 07:00N 50°58' E 001°51'0 0.0
2017-Apr-24 06:30N 50°58' E 001°51'3 5.8
2017-Apr-24 06:00N 50°58' E 001°47'715.0
2017-Apr-24 05:31N 51°02' E 001°36'816.7
2017-Apr-24 05:00N 51°06' E 001°25'3 6.6
2017-Apr-24 04:30N 51°07' E 001°20'0 0.0
2017-Apr-24 04:00N 51°07' E 001°20'3 6.0
2017-Apr-24 03:31N 51°06' E 001°25'816.7
2017-Apr-24 03:00N 51°02' E 001°36'816.7
2017-Apr-24 02:31N 50°58' E 001°48'2 4.3
2017-Apr-24 02:00N 50°58' E 001°51'0 0.0
2017-Apr-24 01:30N 50°58' E 001°51'2 4.6
2017-Apr-24 01:01N 50°58' E 001°47'816.5
2017-Apr-24 00:30N 50°59' E 001°34'815.9
2017-Apr-24 00:01N 51°05' E 001°25'4 8.0
2017-Apr-23 23:29N 51°07' E 001°20'0 0.0
2017-Apr-23 23:00N 51°07' E 001°20'2 3.7
2017-Apr-23 22:30N 51°07' E 001°23'816.8
2017-Apr-23 22:00N 51°03' E 001°35'816.7
2017-Apr-23 21:30N 50°58' E 001°46'4 7.2
2017-Apr-23 21:00N 50°58' E 001°51'0 0.0
2017-Apr-23 20:30N 50°58' E 001°51'5 9.3
2017-Apr-23 20:00N 50°58' E 001°44'816.2
2017-Apr-23 19:31N 51°01' E 001°32'815.9
2017-Apr-23 19:01N 51°06' E 001°22'2 3.6
2017-Apr-23 18:30N 51°07' E 001°20'0 0.0
2017-Apr-23 18:00N 51°07' E 001°20'5 9.9
2017-Apr-23 17:30N 51°06' E 001°28'918.4
2017-Apr-23 17:00N 51°01' E 001°40'815.2
2017-Apr-23 16:31N 50°58' E 001°51'0 0.3
2017-Apr-23 16:00N 50°58' E 001°51'0 0.5
2017-Apr-23 15:31N 50°58' E 001°51'714.8
2017-Apr-23 15:01N 50°59' E 001°39'1514.7
2017-Apr-23 14:00N 51°07' E 001°20'0 0.0
2017-Apr-23 13:30N 51°07' E 001°20'5 9.2
2017-Apr-23 13:01N 51°06' E 001°27'918.8
2017-Apr-23 12:30N 51°01' E 001°39'815.6
2017-Apr-23 12:01N 50°58' E 001°51'0 0.3
2017-Apr-23 11:30N 50°58' E 001°51'1 1.5
2017-Apr-23 11:00N 50°58' E 001°50'917.5
2017-Apr-23 10:30N 51°00' E 001°37'918.1
2017-Apr-23 10:00N 51°05' E 001°25'4 7.2
2017-Apr-23 09:30N 51°07' E 001°20'3 5.6
2017-Apr-23 09:01N 51°07' E 001°25'1020.8
2017-Apr-23 08:31N 51°01' E 001°38'816.7
2017-Apr-23 08:01N 50°58' E 001°51'0 0.6
2017-Apr-23 07:31N 50°58' E 001°51'0 0.0
2017-Apr-23 07:00N 50°58' E 001°51'0 0.0
2017-Apr-23 06:31N 50°58' E 001°51'0 0.0
2017-Apr-23 06:00N 50°58' E 001°51'0 0.0
2017-Apr-23 05:30N 50°58' E 001°51'0 0.0
2017-Apr-23 05:01N 50°58' E 001°51'0 0.0
2017-Apr-23 04:31N 50°58' E 001°51'0 0.0
2017-Apr-23 04:00N 50°58' E 001°51'0 0.0
2017-Apr-23 03:31N 50°58' E 001°51'0 0.0
2017-Apr-23 03:01N 50°58' E 001°51'0 0.0
2017-Apr-23 02:31N 50°58' E 001°51'0 0.0
2017-Apr-23 02:00N 50°58' E 001°51'0 0.0
2017-Apr-23 01:31N 50°58' E 001°51'2 3.0
2017-Apr-23 01:00N 50°58' E 001°49'815.9
2017-Apr-23 00:30N 50°60' E 001°36'917.3
2017-Apr-23 00:00N 51°05' E 001°26'4 8.3
2017-Apr-22 23:30N 51°07' E 001°20'0 0.0
2017-Apr-22 23:00N 51°07' E 001°20'3 5.6
2017-Apr-22 22:30N 51°07' E 001°25'918.6
2017-Apr-22 22:00N 51°02' E 001°37'816.6
2017-Apr-22 21:30N 50°58' E 001°49'2 3.1
2017-Apr-22 21:00N 50°58' E 001°51'0 0.0
2017-Apr-22 20:30N 50°58' E 001°51'4 8.1
2017-Apr-22 20:00N 50°58' E 001°45'917.5
2017-Apr-22 19:30N 51°01' E 001°32'816.5
2017-Apr-22 19:00N 51°07' E 001°22'1 2.6
2017-Apr-22 18:29N 51°07' E 001°20'0 0.0
2017-Apr-22 17:59N 51°07' E 001°20'714.8
2017-Apr-22 17:30N 51°05' E 001°31'1020.8
2017-Apr-22 17:00N 50°58' E 001°44'5 9.3
2017-Apr-22 16:30N 50°58' E 001°51'0 0.0
2017-Apr-22 16:00N 50°58' E 001°51'3 5.5
2017-Apr-22 15:30N 50°58' E 001°47'917.8
2017-Apr-22 15:00N 51°00' E 001°33'1019.5
2017-Apr-22 14:30N 51°07' E 001°22'1 1.2
2017-Apr-22 13:30N 51°07' E 001°20'714.5
2017-Apr-22 13:00N 51°04' E 001°31'1121.0
2017-Apr-22 12:30N 50°58' E 001°44'4 8.9
2017-Apr-22 12:00N 50°58' E 001°51'0 0.0
2017-Apr-22 11:31N 50°58' E 001°51'1 2.5
2017-Apr-22 11:00N 50°58' E 001°49'816.1
2017-Apr-22 10:30N 50°59' E 001°37'918.0
2017-Apr-22 10:00N 51°05' E 001°26'4 8.3
2017-Apr-22 09:30N 51°07' E 001°20'0 0.0
2017-Apr-22 08:59N 51°07' E 001°20'3 5.2
2017-Apr-22 08:30N 51°07' E 001°24'918.4
2017-Apr-22 08:00N 51°02' E 001°36'917.1
2017-Apr-22 07:30N 50°58' E 001°49'2 3.4
2017-Apr-22 07:00N 50°58' E 001°51'0 0.0
2017-Apr-22 06:31N 50°58' E 001°51'3 6.0
2017-Apr-22 06:00N 50°58' E 001°46'816.6
2017-Apr-22 05:30N 51°01' E 001°34'816.9
2017-Apr-22 05:00N 51°06' E 001°24'3 5.0
2017-Apr-22 04:30N 51°07' E 001°20'0 0.0
2017-Apr-22 04:00N 51°07' E 001°20'2 3.9
2017-Apr-22 03:30N 51°07' E 001°23'816.8
2017-Apr-22 03:01N 51°03' E 001°35'816.9
2017-Apr-22 02:31N 50°58' E 001°46'3 7.0
2017-Apr-22 02:01N 50°58' E 001°51'0 0.0
2017-Apr-22 01:31N 50°58' E 001°51'1 2.0
2017-Apr-22 01:00N 50°58' E 001°50'815.4
2017-Apr-22 00:31N 50°60' E 001°38'917.2
2017-Apr-22 00:00N 51°04' E 001°26'5 9.9
2017-Apr-21 23:30N 51°07' E 001°20'0 0.0
2017-Apr-21 23:00N 51°07' E 001°20'2 4.1
2017-Apr-21 22:31N 51°07' E 001°23'815.9
2017-Apr-21 22:01N 51°03' E 001°34'816.4
2017-Apr-21 21:31N 50°58' E 001°45'4 8.2
2017-Apr-21 21:00N 50°58' E 001°51'0 0.0
2017-Apr-21 20:30N 50°58' E 001°51'5 9.3
2017-Apr-21 20:00N 50°58' E 001°44'918.1
2017-Apr-21 19:30N 51°03' E 001°32'816.7
2017-Apr-21 19:00N 51°07' E 001°21'0 0.6
2017-Apr-21 18:30N 51°07' E 001°20'0 0.0
2017-Apr-21 17:59N 51°07' E 001°20'4 8.9
2017-Apr-21 17:30N 51°06' E 001°26'918.1
2017-Apr-21 17:00N 51°01' E 001°39'816.1
2017-Apr-21 16:31N 50°58' E 001°51'0 0.8
2017-Apr-21 16:01N 50°58' E 001°51'0 0.9
2017-Apr-21 15:30N 50°58' E 001°51'815.9
2017-Apr-21 15:00N 50°59' E 001°38'918.0
2017-Apr-21 14:30N 51°04' E 001°27'5 4.9
2017-Apr-21 13:28N 51°07' E 001°20'4 8.9
2017-Apr-21 13:00N 51°06' E 001°26'917.7
2017-Apr-21 12:30N 51°01' E 001°38'816.5
2017-Apr-21 12:01N 50°58' E 001°50'1 1.5
2017-Apr-21 11:31N 50°58' E 001°51'0 0.2
2017-Apr-21 11:01N 50°58' E 001°51'713.9
2017-Apr-21 10:30N 50°59' E 001°40'917.1
2017-Apr-21 10:00N 51°04' E 001°29'713.6
2017-Apr-21 09:30N 51°07' E 001°20'0 0.0
2017-Apr-21 09:00N 51°07' E 001°20'3 6.4
2017-Apr-21 08:30N 51°07' E 001°25'918.0
2017-Apr-21 08:00N 51°02' E 001°37'917.2
2017-Apr-21 07:30N 50°58' E 001°49'1 2.9
2017-Apr-21 07:00N 50°58' E 001°51'0 0.0
2017-Apr-21 06:30N 50°58' E 001°51'4 7.4
2017-Apr-21 06:00N 50°58' E 001°45'816.8
2017-Apr-21 05:30N 50°59' E 001°32'917.3
2017-Apr-21 05:00N 51°06' E 001°23'3 5.2
2017-Apr-21 04:30N 51°07' E 001°20'0 0.0
2017-Apr-21 04:00N 51°07' E 001°20'3 5.2
2017-Apr-21 03:30N 51°07' E 001°24'816.9
2017-Apr-21 03:00N 51°03' E 001°36'816.8
2017-Apr-21 02:30N 50°58' E 001°47'3 5.2
2017-Apr-21 02:00N 50°58' E 001°51'0 0.0
2017-Apr-21 01:30N 50°58' E 001°51'2 3.1
2017-Apr-21 01:00N 50°58' E 001°49'815.3
2017-Apr-21 00:30N 50°59' E 001°37'816.9
2017-Apr-21 00:00N 51°05' E 001°26'5 9.2
2017-Apr-20 23:30N 51°07' E 001°20'0 0.0
2017-Apr-20 23:00N 51°07' E 001°20'1 2.5
2017-Apr-20 22:30N 51°07' E 001°22'817.0
2017-Apr-20 22:00N 51°04' E 001°34'817.0
2017-Apr-20 21:30N 50°58' E 001°45'4 8.3
2017-Apr-20 21:01N 50°58' E 001°51'0 0.0
2017-Apr-20 20:31N 50°58' E 001°51'4 7.5
2017-Apr-20 20:01N 50°58' E 001°45'816.0
2017-Apr-20 19:30N 51°01' E 001°33'815.9
2017-Apr-20 19:01N 51°06' E 001°24'3 5.5
2017-Apr-20 18:30N 51°07' E 001°20'0 0.0
2017-Apr-20 18:00N 51°07' E 001°20'5 9.7
2017-Apr-20 17:31N 51°06' E 001°27'918.5
2017-Apr-20 17:01N 51°01' E 001°40'815.1
2017-Apr-20 16:30N 50°58' E 001°51'0 0.4
2017-Apr-20 16:00N 50°58' E 001°51'0 0.7
2017-Apr-20 15:30N 50°58' E 001°51'816.8
2017-Apr-20 15:00N 50°59' E 001°37'918.2
2017-Apr-20 14:30N 51°04' E 001°26'5 4.8
2017-Apr-20 13:30N 51°07' E 001°20'5 9.8
2017-Apr-20 13:01N 51°06' E 001°27'1122.2
2017-Apr-20 12:31N 50°59' E 001°42'612.2
2017-Apr-20 12:01N 50°58' E 001°51'0 0.0
2017-Apr-20 11:30N 50°58' E 001°51'0 0.3
2017-Apr-20 11:00N 50°58' E 001°51'815.7
2017-Apr-20 10:31N 50°59' E 001°39'1020.1
2017-Apr-20 10:00N 51°05' E 001°25'4 8.0
2017-Apr-20 09:30N 51°07' E 001°20'0 0.0
2017-Apr-20 09:00N 51°07' E 001°20'3 5.9
2017-Apr-20 08:31N 51°07' E 001°25'918.2
2017-Apr-20 08:00N 51°02' E 001°37'816.9
2017-Apr-20 07:30N 50°58' E 001°49'1 2.7
2017-Apr-20 07:00N 50°58' E 001°51'0 0.0
2017-Apr-20 06:30N 50°58' E 001°51'2 3.2
2017-Apr-20 06:00N 50°58' E 001°49'816.3
2017-Apr-20 05:30N 51°00' E 001°36'917.7
2017-Apr-20 05:00N 51°05' E 001°25'4 7.0
2017-Apr-20 04:30N 51°07' E 001°20'0 0.0
2017-Apr-20 04:00N 51°07' E 001°20'2 3.2
2017-Apr-20 03:30N 51°07' E 001°23'917.1
2017-Apr-20 03:00N 51°03' E 001°35'917.2
2017-Apr-20 02:30N 50°58' E 001°46'3 6.8
2017-Apr-20 02:01N 50°58' E 001°51'0 0.0
2017-Apr-20 01:31N 50°58' E 001°51'0 0.9
2017-Apr-20 01:00N 50°58' E 001°51'816.4
2017-Apr-20 00:31N 50°59' E 001°38'918.9
2017-Apr-20 00:00N 51°05' E 001°26'4 8.5
2017-Apr-19 23:31N 51°07' E 001°20'0 0.0
2017-Apr-19 23:00N 51°07' E 001°20'0 0.5
2017-Apr-19 22:31N 51°07' E 001°20'918.5
2017-Apr-19 22:00N 51°04' E 001°34'1019.2
2017-Apr-19 21:31N 50°58' E 001°46'3 6.0
2017-Apr-19 21:00N 50°58' E 001°51'0 0.0
2017-Apr-19 20:30N 50°58' E 001°51'3 6.6
2017-Apr-19 20:00N 50°58' E 001°46'917.3
2017-Apr-19 19:30N 51°01' E 001°33'917.8
2017-Apr-19 19:00N 51°07' E 001°22'1 2.9
2017-Apr-19 18:30N 51°07' E 001°20'0 0.0
2017-Apr-19 18:00N 51°07' E 001°20'713.4
2017-Apr-19 17:31N 51°05' E 001°30'1020.0
2017-Apr-19 17:01N 50°59' E 001°43'510.5
2017-Apr-19 16:30N 50°58' E 001°51'0 0.0
2017-Apr-19 16:00N 50°58' E 001°51'1 1.1
2017-Apr-19 15:31N 50°58' E 001°50'816.8
2017-Apr-19 15:00N 50°60' E 001°37'917.5
2017-Apr-19 14:30N 51°05' E 001°26'4 4.4
2017-Apr-19 13:30N 51°07' E 001°20'3 6.3
2017-Apr-19 13:00N 51°06' E 001°25'1121.5
2017-Apr-19 12:30N 51°01' E 001°39'815.8
2017-Apr-19 12:01N 50°58' E 001°51'0 0.2
2017-Apr-19 11:30N 50°58' E 001°51'0 0.5
2017-Apr-19 11:01N 50°58' E 001°51'815.7
2017-Apr-19 10:30N 50°59' E 001°38'919.0
2017-Apr-19 10:00N 51°05' E 001°26'5 9.7
2017-Apr-19 09:30N 51°07' E 001°20'0 0.0
2017-Apr-19 09:00N 51°07' E 001°20'3 5.5
2017-Apr-19 08:30N 51°07' E 001°24'917.2
2017-Apr-19 08:00N 51°02' E 001°36'816.6
2017-Apr-19 07:30N 50°58' E 001°48'2 4.6
2017-Apr-19 07:00N 50°58' E 001°51'0 0.0
2017-Apr-19 06:30N 50°58' E 001°51'2 4.2
2017-Apr-19 06:01N 50°58' E 001°48'816.9
2017-Apr-19 05:31N 51°00' E 001°35'816.6
2017-Apr-19 05:01N 51°05' E 001°25'7 3.4
2017-Apr-19 03:01N 51°03' E 001°35'816.9
2017-Apr-19 02:31N 50°58' E 001°46'3 6.9
2017-Apr-19 02:00N 50°58' E 001°51'0 0.0
2017-Apr-19 01:31N 50°58' E 001°51'1 1.8
2017-Apr-19 01:00N 50°58' E 001°50'816.7
2017-Apr-19 00:30N 50°59' E 001°37'917.7
2017-Apr-19 00:00N 51°05' E 001°26'4 8.8
2017-Apr-18 23:30N 51°07' E 001°20'0 0.0
2017-Apr-18 23:00N 51°07' E 001°20'0 0.6
2017-Apr-18 22:30N 51°07' E 001°21'1020.0
2017-Apr-18 22:00N 51°03' E 001°35'1019.9
2017-Apr-18 21:30N 50°58' E 001°49'2 3.0
2017-Apr-18 21:00N 50°58' E 001°51'0 0.0
2017-Apr-18 20:30N 50°58' E 001°51'3 5.7
2017-Apr-18 20:00N 50°58' E 001°47'816.6
2017-Apr-18 19:30N 51°01' E 001°34'918.1
2017-Apr-18 19:00N 51°06' E 001°23'2 3.9
2017-Apr-18 18:29N 51°07' E 001°20'0 0.0
2017-Apr-18 18:00N 51°07' E 001°20'4 8.6
2017-Apr-18 17:30N 51°07' E 001°27'918.3
2017-Apr-18 17:00N 51°01' E 001°39'816.2
2017-Apr-18 16:30N 50°58' E 001°51'0 0.8
2017-Apr-18 16:00N 50°58' E 001°51'1 1.2
2017-Apr-18 15:31N 50°58' E 001°50'917.4
2017-Apr-18 15:00N 50°59' E 001°36'917.5
2017-Apr-18 14:30N 51°05' E 001°26'5 4.7
2017-Apr-18 13:31N 51°07' E 001°20'3 5.8
2017-Apr-18 13:00N 51°07' E 001°25'1121.4
2017-Apr-18 12:30N 51°01' E 001°39'816.2
2017-Apr-18 12:01N 50°58' E 001°51'0 0.3
2017-Apr-18 11:30N 50°58' E 001°51'0 0.5
2017-Apr-18 11:00N 50°58' E 001°51'815.5
2017-Apr-18 10:31N 50°59' E 001°39'917.7
2017-Apr-18 10:00N 51°03' E 001°26'611.5
2017-Apr-18 09:30N 51°07' E 001°20'0 0.0
2017-Apr-18 09:00N 51°07' E 001°20'3 5.2
2017-Apr-18 08:31N 51°07' E 001°24'816.5
2017-Apr-18 08:00N 51°02' E 001°35'817.0
2017-Apr-18 07:30N 50°58' E 001°47'3 5.5
2017-Apr-18 07:00N 50°58' E 001°51'0 0.0
2017-Apr-18 06:30N 50°58' E 001°51'1 2.8
2017-Apr-18 06:00N 50°58' E 001°49'917.1
2017-Apr-18 05:30N 51°00' E 001°36'917.2
2017-Apr-18 05:01N 51°05' E 001°25'4 7.5
2017-Apr-18 04:30N 51°07' E 001°20'0 0.0
2017-Apr-18 04:00N 51°07' E 001°20'3 5.4
2017-Apr-18 03:30N 51°07' E 001°24'917.6
2017-Apr-18 03:01N 51°02' E 001°36'816.0
2017-Apr-18 02:31N 50°58' E 001°47'3 5.3
2017-Apr-18 02:00N 50°58' E 001°51'0 0.0
2017-Apr-18 01:30N 50°58' E 001°51'0 0.8
2017-Apr-18 01:00N 50°58' E 001°51'816.8
2017-Apr-18 00:30N 51°00' E 001°38'918.9
2017-Apr-18 00:00N 51°05' E 001°25'4 7.4
2017-Apr-17 23:30N 51°07' E 001°20'0 0.0
2017-Apr-17 23:00N 51°07' E 001°20'0 0.5
2017-Apr-17 22:30N 51°07' E 001°21'917.8
2017-Apr-17 22:01N 51°03' E 001°33'1019.0
2017-Apr-17 21:30N 50°58' E 001°46'3 7.0
2017-Apr-17 21:01N 50°58' E 001°51'0 0.0
2017-Apr-17 20:31N 50°58' E 001°51'4 7.6
2017-Apr-17 20:00N 50°58' E 001°45'917.2
2017-Apr-17 19:30N 51°01' E 001°33'918.3
2017-Apr-17 19:00N 51°07' E 001°21'1 1.3
2017-Apr-17 18:30N 51°07' E 001°20'0 0.0
2017-Apr-17 17:59N 51°07' E 001°20'612.6
2017-Apr-17 17:31N 51°06' E 001°29'918.2
2017-Apr-17 17:01N 51°00' E 001°41'713.6
2017-Apr-17 16:30N 50°58' E 001°51'0 0.0
2017-Apr-17 16:00N 50°58' E 001°51'1 1.1
2017-Apr-17 15:30N 50°58' E 001°50'917.1
2017-Apr-17 15:01N 51°00' E 001°37'917.4
2017-Apr-17 14:30N 51°05' E 001°26'4 4.2
2017-Apr-17 13:29N 51°07' E 001°20'5 9.9
2017-Apr-17 13:01N 51°06' E 001°27'1019.5
2017-Apr-17 12:30N 51°00' E 001°40'714.8
2017-Apr-17 12:01N 50°58' E 001°51'0 0.2
2017-Apr-17 11:30N 50°58' E 001°51'0 0.9
2017-Apr-17 11:00N 50°58' E 001°51'815.7
2017-Apr-17 10:30N 50°59' E 001°38'918.1
2017-Apr-17 10:00N 51°04' E 001°27'510.6
2017-Apr-17 09:30N 51°07' E 001°20'0 0.0
2017-Apr-17 09:00N 51°07' E 001°20'1 3.0
2017-Apr-17 08:30N 51°07' E 001°22'917.5
2017-Apr-17 08:01N 51°02' E 001°34'918.8
2017-Apr-17 07:31N 50°58' E 001°47'2 4.8
2017-Apr-17 07:00N 50°58' E 001°51'0 0.0
2017-Apr-17 06:30N 50°58' E 001°51'2 4.3
2017-Apr-17 06:00N 50°58' E 001°48'816.1
2017-Apr-17 05:30N 51°00' E 001°36'816.1
2017-Apr-17 05:00N 51°05' E 001°25'4 7.5
2017-Apr-17 04:29N 51°07' E 001°20'0 0.0
2017-Apr-17 04:00N 51°07' E 001°20'2 4.6
2017-Apr-17 03:30N 51°07' E 001°24'816.0
2017-Apr-17 03:01N 51°04' E 001°35'816.0
2017-Apr-17 02:30N 50°58' E 001°45'4 8.1
2017-Apr-17 02:00N 50°58' E 001°51'0 0.0
2017-Apr-17 01:30N 50°58' E 001°51'1 1.2
2017-Apr-17 01:01N 50°58' E 001°50'917.7
2017-Apr-17 00:30N 50°59' E 001°36'917.4
2017-Apr-17 00:01N 51°05' E 001°26'4 8.8
2017-Apr-16 23:30N 51°07' E 001°20'0 0.0
2017-Apr-16 23:00N 51°07' E 001°20'1 1.2
2017-Apr-16 22:30N 51°07' E 001°21'918.9
2017-Apr-16 22:00N 51°03' E 001°34'1019.0
2017-Apr-16 21:30N 50°58' E 001°48'2 4.7
2017-Apr-16 21:00N 50°58' E 001°51'0 0.0
2017-Apr-16 20:30N 50°58' E 001°51'4 7.5
2017-Apr-16 20:01N 50°58' E 001°45'815.8
2017-Apr-16 19:31N 51°01' E 001°34'816.8
2017-Apr-16 19:01N 51°06' E 001°23'2 4.6
2017-Apr-16 18:30N 51°07' E 001°20'0 0.0
2017-Apr-16 18:00N 51°07' E 001°20'611.3
2017-Apr-16 17:30N 51°06' E 001°29'917.1
2017-Apr-16 17:00N 51°01' E 001°39'815.0
2017-Apr-16 16:30N 50°58' E 001°51'0 0.7
2017-Apr-16 16:00N 50°58' E 001°51'0 0.8
2017-Apr-16 15:30N 50°58' E 001°51'816.6
2017-Apr-16 15:00N 50°59' E 001°38'816.9
2017-Apr-16 14:30N 51°04' E 001°26'5 5.4
2017-Apr-16 13:30N 51°07' E 001°20'5 9.2
2017-Apr-16 13:01N 51°06' E 001°27'1019.2
2017-Apr-16 12:31N 51°01' E 001°40'715.0
2017-Apr-16 12:00N 50°58' E 001°51'0 0.6
2017-Apr-16 11:30N 50°58' E 001°51'0 0.5
2017-Apr-16 11:01N 50°58' E 001°51'815.5
2017-Apr-16 10:31N 50°59' E 001°39'918.0
2017-Apr-16 10:00N 51°04' E 001°26'610.1
2017-Apr-16 09:28N 51°08' E 001°20'0 0.0
2017-Apr-16 08:55N 51°08' E 001°20'4 9.1
2017-Apr-16 08:30N 51°07' E 001°26'917.6
2017-Apr-16 08:00N 51°03' E 001°39'816.8
2017-Apr-16 07:30N 50°58' E 001°50'1 2.3
2017-Apr-16 07:00N 50°58' E 001°52'0 0.0
2017-Apr-16 06:31N 50°58' E 001°52'0 0.0
2017-Apr-16 06:00N 50°58' E 001°52'0 0.0
2017-Apr-16 05:30N 50°58' E 001°52'0 0.0
2017-Apr-16 05:00N 50°58' E 001°52'0 0.0
2017-Apr-16 04:30N 50°58' E 001°52'0 0.0
2017-Apr-16 04:00N 50°58' E 001°52'0 0.0
2017-Apr-16 03:30N 50°58' E 001°52'0 0.0
2017-Apr-16 03:00N 50°58' E 001°52'0 0.0
2017-Apr-16 02:30N 50°58' E 001°52'0 0.0
2017-Apr-16 02:01N 50°58' E 001°52'0 0.0
2017-Apr-16 01:30N 50°58' E 001°52'1 1.4
2017-Apr-16 01:01N 50°58' E 001°51'816.8
2017-Apr-16 00:31N 50°60' E 001°37'917.7
2017-Apr-16 00:01N 51°05' E 001°26'5 8.8
2017-Apr-15 23:30N 51°07' E 001°20'0 0.0
2017-Apr-15 22:59N 51°07' E 001°20'1 2.3
2017-Apr-15 22:30N 51°07' E 001°22'918.9
2017-Apr-15 22:01N 51°03' E 001°35'918.4
2017-Apr-15 21:31N 50°58' E 001°48'2 4.5
2017-Apr-15 21:00N 50°58' E 001°51'0 0.0
2017-Apr-15 20:30N 50°58' E 001°51'4 7.8
2017-Apr-15 20:00N 50°58' E 001°45'816.6
2017-Apr-15 19:31N 51°01' E 001°33'917.7
2017-Apr-15 19:00N 51°07' E 001°22'1 2.8
2017-Apr-15 18:30N 51°07' E 001°20'0 0.0
2017-Apr-15 18:00N 51°07' E 001°20'5 9.4
2017-Apr-15 17:31N 51°06' E 001°27'816.8
2017-Apr-15 17:01N 51°01' E 001°38'815.8
2017-Apr-15 16:30N 50°58' E 001°50'1 1.6
2017-Apr-15 16:00N 50°58' E 001°51'0 0.6
2017-Apr-15 15:31N 50°58' E 001°51'816.6
2017-Apr-15 15:00N 50°59' E 001°38'917.7
2017-Apr-15 14:30N 51°05' E 001°26'5 4.7
2017-Apr-15 13:29N 51°07' E 001°20'613.2
2017-Apr-15 13:00N 51°07' E 001°30'1019.3
2017-Apr-15 12:31N 51°00' E 001°41'713.0
2017-Apr-15 12:00N 50°58' E 001°51'0 0.0
2017-Apr-15 11:30N 50°58' E 001°51'0 0.5
2017-Apr-15 11:00N 50°58' E 001°51'816.3
2017-Apr-15 10:31N 50°59' E 001°38'918.5
2017-Apr-15 10:00N 51°04' E 001°26'5 9.9
2017-Apr-15 09:30N 51°07' E 001°20'0 0.0
2017-Apr-15 09:00N 51°07' E 001°20'3 5.9
2017-Apr-15 08:30N 51°07' E 001°25'816.3
2017-Apr-15 08:00N 51°03' E 001°36'816.8
2017-Apr-15 07:30N 50°58' E 001°47'3 5.4
2017-Apr-15 07:00N 50°58' E 001°51'0 0.0
2017-Apr-15 06:30N 50°58' E 001°51'2 4.0
2017-Apr-15 06:01N 50°58' E 001°48'815.3
2017-Apr-15 05:31N 51°01' E 001°37'917.3
2017-Apr-15 05:01N 51°06' E 001°25'4 7.4
2017-Apr-15 04:30N 51°07' E 001°20'0 0.0
2017-Apr-15 04:00N 51°07' E 001°20'2 4.8
2017-Apr-15 03:31N 51°07' E 001°24'917.1
2017-Apr-15 03:01N 51°03' E 001°36'816.5
2017-Apr-15 02:31N 50°58' E 001°46'3 5.8
2017-Apr-15 02:00N 50°58' E 001°51'0 0.0
2017-Apr-15 01:30N 50°58' E 001°51'0 0.2
2017-Apr-15 01:00N 50°58' E 001°51'815.5
2017-Apr-15 00:30N 50°60' E 001°39'1019.6
2017-Apr-15 00:00N 51°05' E 001°26'4 9.0
2017-Apr-14 23:30N 51°07' E 001°20'  

Dump ship's entire track history